createdAt,value
2018-01-08T00:01:03.042Z,8.13
2018-01-08T00:03:30.812Z,8.90
2018-01-08T00:05:58.395Z,11.23
2018-01-08T00:08:25.853Z,8.00
2018-01-08T00:10:53.321Z,9.80
2018-01-08T00:13:20.780Z,8.43
2018-01-08T00:15:48.965Z,9.93
2018-01-08T00:18:16.417Z,11.30
2018-01-08T00:20:43.884Z,8.17
2018-01-08T00:23:11.424Z,10.70
2018-01-08T00:25:38.890Z,8.90
2018-01-08T00:28:06.356Z,8.50
2018-01-08T00:30:33.833Z,8.00
2018-01-08T00:33:02.071Z,9.20
2018-01-08T00:35:29.532Z,10.03
2018-01-08T00:37:56.996Z,9.70
2018-01-08T00:40:25.965Z,9.00
2018-01-08T00:42:53.429Z,10.10
2018-01-08T00:45:20.893Z,11.03
2018-01-08T00:47:48.367Z,9.67
2018-01-08T00:50:15.850Z,10.00
2018-01-08T00:52:43.325Z,11.03
2018-01-08T00:55:10.808Z,10.93
2018-01-08T00:57:38.290Z,12.03
2018-01-08T01:00:05.758Z,10.00
2018-01-08T01:02:33.980Z,10.83
2018-01-08T01:05:01.448Z,12.17
2018-01-08T01:07:29.032Z,9.23
2018-01-08T01:09:56.604Z,9.60
2018-01-08T01:12:24.057Z,11.43
2018-01-08T01:14:51.516Z,8.93
2018-01-08T01:17:19.740Z,9.10
2018-01-08T01:19:47.204Z,10.57
2018-01-08T01:22:14.684Z,11.50
2018-01-08T01:24:42.130Z,9.10
2018-01-08T01:27:09.708Z,9.70
2018-01-08T01:29:37.313Z,7.40
2018-01-08T01:32:04.871Z,9.07
2018-01-08T01:34:32.340Z,7.97
2018-01-08T01:36:59.809Z,12.40
2018-01-08T01:39:27.273Z,8.17
2018-01-08T01:41:54.740Z,12.20
2018-01-08T01:44:22.204Z,8.47
2018-01-08T01:46:49.666Z,8.00
2018-01-08T01:49:20.896Z,11.10
2018-01-08T01:51:48.364Z,6.97
2018-01-08T01:54:17.348Z,9.77
2018-01-08T01:56:44.804Z,8.03
2018-01-08T01:59:12.281Z,9.10
2018-01-08T02:01:39.793Z,14.70
2018-01-08T02:04:07.262Z,8.20
2018-01-08T02:06:34.729Z,8.30
2018-01-08T02:09:02.205Z,9.60
2018-01-08T02:11:29.679Z,10.00
2018-01-08T02:13:57.136Z,10.10
2018-01-08T02:16:25.450Z,9.70
2018-01-08T02:18:53.062Z,7.60
2018-01-08T02:21:22.033Z,7.40
2018-01-08T02:23:49.500Z,10.30
2018-01-08T02:26:16.976Z,10.30
2018-01-08T02:28:45.196Z,9.33
2018-01-08T02:31:12.656Z,8.63
2018-01-08T02:33:40.954Z,9.33
2018-01-08T02:36:08.420Z,8.23
2018-01-08T02:38:35.889Z,9.20
2018-01-08T02:41:03.356Z,8.60
2018-01-08T02:43:31.577Z,8.80
2018-01-08T02:45:59.052Z,9.50
2018-01-08T02:48:26.552Z,11.40
2018-01-08T02:50:54.777Z,8.37
2018-01-08T02:53:22.304Z,9.17
2018-01-08T02:55:49.776Z,12.03
2018-01-08T02:58:17.236Z,10.93
2018-01-08T03:00:44.704Z,9.07
2018-01-08T03:03:12.178Z,10.47
2018-01-08T03:05:39.632Z,9.60
2018-01-08T03:08:07.093Z,9.00
2018-01-08T03:10:34.568Z,11.03
2018-01-08T03:13:02.025Z,9.50
2018-01-08T03:15:29.493Z,10.60
2018-01-08T03:17:57.716Z,8.40
2018-01-08T03:20:25.192Z,11.33
2018-01-08T03:22:52.644Z,10.93
2018-01-08T03:25:20.107Z,10.03
2018-01-08T03:27:47.584Z,11.33
2018-01-08T03:30:15.131Z,12.00
2018-01-08T03:32:44.109Z,12.43
2018-01-08T03:35:11.572Z,11.00
2018-01-08T03:37:39.036Z,10.50
2018-01-08T03:40:06.492Z,10.53
2018-01-08T03:42:34.728Z,10.17
2018-01-08T03:45:02.186Z,8.70
2018-01-08T03:47:29.657Z,9.80
2018-01-08T03:49:57.117Z,9.10
2018-01-08T03:52:24.586Z,11.77
2018-01-08T03:54:52.052Z,14.10
2018-01-08T03:57:19.684Z,12.43
2018-01-08T03:59:47.145Z,10.50
2018-01-08T04:02:14.612Z,11.00
2018-01-08T04:04:42.085Z,13.20
2018-01-08T04:07:09.552Z,11.47
2018-01-08T04:09:37.017Z,9.30
2018-01-08T04:12:05.246Z,11.43
2018-01-08T04:14:32.719Z,10.80
2018-01-08T04:17:00.209Z,12.07
2018-01-08T04:19:28.447Z,12.53
2018-01-08T04:21:55.981Z,11.27
2018-01-08T04:24:23.453Z,12.53
2018-01-08T04:26:50.908Z,8.57
2018-01-08T04:29:18.373Z,9.50
2018-01-08T04:31:45.889Z,9.73
2018-01-08T04:34:13.529Z,11.53
2018-01-08T04:36:41.769Z,11.03
2018-01-08T04:39:09.267Z,8.63
2018-01-08T04:41:36.778Z,11.17
2018-01-08T04:44:04.244Z,10.77
2018-01-08T04:46:31.708Z,8.90
2018-01-08T04:48:59.173Z,9.50
2018-01-08T04:51:26.741Z,9.53
2018-01-08T04:53:54.189Z,9.83
2018-01-08T04:56:21.659Z,11.40
2018-01-08T04:58:49.112Z,9.87
2018-01-08T05:01:16.589Z,10.00
2018-01-08T05:03:44.829Z,11.63
2018-01-08T05:06:12.289Z,14.07
2018-01-08T05:08:39.752Z,12.47
2018-01-08T05:11:07.394Z,11.47
2018-01-08T05:13:34.973Z,11.47
2018-01-08T05:16:02.425Z,18.47
2018-01-08T05:18:30.009Z,11.03
2018-01-08T05:20:58.257Z,13.30
2018-01-08T05:23:25.724Z,12.27
2018-01-08T05:25:53.257Z,12.70
2018-01-08T05:28:20.746Z,11.70
2018-01-08T05:30:48.316Z,14.03
2018-01-08T05:33:16.600Z,14.47
2018-01-08T05:35:44.860Z,14.93
2018-01-08T05:38:13.104Z,12.50
2018-01-08T05:40:40.608Z,13.87
2018-01-08T05:43:08.832Z,14.17
2018-01-08T05:45:36.323Z,13.93
2018-01-08T05:48:04.565Z,15.23
2018-01-08T05:50:32.076Z,13.57
2018-01-08T05:52:59.564Z,14.50
2018-01-08T05:55:27.015Z,11.77
2018-01-08T05:57:54.622Z,11.63
2018-01-08T06:00:22.154Z,12.57
2018-01-08T06:02:49.641Z,12.83
2018-01-08T06:05:17.300Z,16.77
2018-01-08T06:07:45.558Z,12.13
2018-01-08T06:10:13.033Z,13.40
2018-01-08T06:12:40.541Z,17.23
2018-01-08T06:15:08.003Z,14.73
2018-01-08T06:17:35.528Z,13.33
2018-01-08T06:20:03.110Z,14.67
2018-01-08T06:22:30.637Z,14.90
2018-01-08T06:24:58.214Z,13.37
2018-01-08T06:27:25.673Z,12.60
2018-01-08T06:29:53.140Z,13.70
2018-01-08T06:32:20.706Z,16.70
2018-01-08T06:34:48.299Z,12.03
2018-01-08T06:37:15.835Z,16.90
2018-01-08T06:39:43.348Z,12.17
2018-01-08T06:42:11.685Z,14.60
2018-01-08T06:44:39.207Z,18.23
2018-01-08T06:47:06.708Z,13.80
2018-01-08T06:49:34.199Z,13.93
2018-01-08T06:52:02.437Z,12.70
2018-01-08T06:54:29.924Z,13.80
2018-01-08T06:56:58.189Z,15.73
2018-01-08T06:59:25.679Z,17.33
2018-01-08T07:01:53.149Z,11.43
2018-01-08T07:04:20.689Z,14.23
2018-01-08T07:06:48.208Z,22.10
2018-01-08T07:09:15.729Z,14.40
2018-01-08T07:11:43.349Z,15.53
2018-01-08T07:14:11.752Z,16.10
2018-01-08T07:16:39.380Z,14.07
2018-01-08T07:19:07.325Z,16.97
2018-01-08T07:21:34.793Z,11.73
2018-01-08T07:24:02.541Z,15.10
2018-01-08T07:26:30.206Z,21.03
2018-01-08T07:28:57.687Z,14.83
2018-01-08T07:31:25.363Z,13.97
2018-01-08T07:33:54.019Z,14.97
2018-01-08T07:36:21.646Z,15.60
2018-01-08T07:38:49.105Z,13.50
2018-01-08T07:41:16.616Z,13.77
2018-01-08T07:43:44.873Z,18.20
2018-01-08T07:46:12.424Z,16.40
2018-01-08T07:48:39.973Z,16.43
2018-01-08T07:51:07.444Z,15.53
2018-01-08T07:53:35.208Z,14.50
2018-01-08T07:56:02.837Z,21.90
2018-01-08T07:58:30.389Z,18.97
2018-01-08T08:00:58.122Z,14.17
2018-01-08T08:03:26.432Z,14.40
2018-01-08T08:05:53.913Z,17.20
2018-01-08T08:08:21.390Z,19.43
2018-01-08T08:10:48.860Z,14.93
2018-01-08T08:13:16.328Z,15.00
2018-01-08T08:15:44.574Z,16.93
2018-01-08T08:18:12.040Z,14.13
2018-01-08T08:20:39.592Z,16.87
2018-01-08T08:23:07.193Z,16.37
2018-01-08T08:25:34.823Z,16.30
2018-01-08T08:28:02.493Z,20.00
2018-01-08T08:30:30.728Z,13.67
2018-01-08T08:32:58.245Z,14.10
2018-01-08T08:35:25.721Z,16.30
2018-01-08T08:37:53.185Z,14.03
2018-01-08T08:40:20.670Z,14.50
2018-01-08T08:42:48.141Z,15.50
2018-01-08T08:45:15.626Z,15.33
2018-01-08T08:47:43.085Z,14.77
2018-01-08T08:50:10.565Z,14.27
2018-01-08T08:52:38.050Z,16.60
2018-01-08T08:55:05.523Z,14.20
2018-01-08T08:57:33.001Z,15.73
2018-01-08T09:00:01.287Z,17.10
2018-01-08T09:02:29.529Z,13.60
2018-01-08T09:04:57.000Z,14.10
2018-01-08T09:07:25.268Z,15.80
2018-01-08T09:09:52.724Z,12.00
2018-01-08T09:12:20.193Z,18.70
2018-01-08T09:14:48.413Z,14.83
2018-01-08T09:17:15.884Z,13.20
2018-01-08T09:19:43.356Z,13.53
2018-01-08T09:22:10.823Z,16.97
2018-01-08T09:24:40.003Z,14.00
2018-01-08T09:27:07.472Z,13.43
2018-01-08T09:29:35.132Z,16.17
2018-01-08T09:32:02.622Z,12.73
2018-01-08T09:34:30.868Z,17.43
2018-01-08T09:36:58.345Z,13.33
2018-01-08T09:39:26.581Z,13.77
2018-01-08T09:41:54.056Z,12.60
2018-01-08T09:44:22.295Z,14.77
2018-01-08T09:46:49.781Z,14.20
2018-01-08T09:49:17.360Z,13.93
2018-01-08T09:51:44.820Z,13.17
2018-01-08T09:54:13.075Z,14.27
2018-01-08T09:56:40.556Z,18.40
2018-01-08T09:59:08.791Z,13.73
2018-01-08T10:01:36.256Z,14.93
2018-01-08T10:04:15.771Z,15.13
2018-01-08T10:06:55.080Z,13.13
2018-01-08T10:09:34.768Z,16.30
2018-01-08T10:12:14.132Z,17.67
2018-01-08T10:14:53.558Z,13.90
2018-01-08T10:17:32.949Z,12.07
2018-01-08T10:20:00.422Z,13.50
2018-01-08T10:22:27.883Z,14.30
2018-01-08T10:24:55.366Z,13.20
2018-01-08T10:27:22.949Z,14.30
2018-01-08T10:29:51.245Z,15.20
2018-01-08T10:32:18.752Z,16.33
2018-01-08T10:34:46.185Z,18.03
2018-01-08T10:37:13.759Z,14.70
2018-01-08T10:39:41.237Z,15.20
2018-01-08T10:42:14.505Z,15.93
2018-01-08T10:44:47.644Z,14.47
2018-01-08T10:47:21.685Z,13.30
2018-01-08T10:49:54.772Z,13.83
2018-01-08T10:52:21.744Z,15.00
2018-01-08T10:54:51.713Z,22.40
2018-01-08T10:57:19.192Z,26.13
2018-01-08T10:59:46.654Z,14.70
2018-01-08T11:02:19.840Z,14.23
2018-01-08T11:04:47.365Z,14.83
2018-01-08T11:07:15.623Z,16.97
2018-01-08T11:09:43.164Z,15.60
2018-01-08T11:12:10.636Z,13.67
2018-01-08T11:14:38.111Z,17.57
2018-01-08T11:17:06.360Z,16.47
2018-01-08T11:19:33.828Z,15.57
2018-01-08T11:22:01.339Z,15.20
2018-01-08T11:24:28.824Z,14.93
2018-01-08T11:26:56.462Z,14.13
2018-01-08T11:29:23.963Z,15.90
2018-01-08T11:31:52.196Z,19.37
2018-01-08T11:34:19.684Z,15.63
2018-01-08T11:36:47.165Z,14.90
2018-01-08T11:39:15.398Z,16.40
2018-01-08T11:41:42.931Z,18.80
2018-01-08T11:44:10.441Z,18.77
2018-01-08T11:46:37.921Z,16.83
2018-01-08T11:49:05.381Z,18.47
2018-01-08T11:51:32.870Z,14.70
2018-01-08T11:54:00.331Z,15.43
2018-01-08T11:56:27.799Z,13.27
2018-01-08T11:58:55.262Z,13.40
2018-01-08T12:01:22.743Z,16.93
2018-01-08T12:03:50.976Z,17.93
2018-01-08T12:06:19.197Z,24.93
2018-01-08T12:08:46.665Z,13.87
2018-01-08T12:11:14.952Z,16.70
2018-01-08T12:13:42.476Z,16.43
2018-01-08T12:16:09.961Z,17.50
2018-01-08T12:18:38.192Z,15.77
2018-01-08T12:21:05.676Z,16.93
2018-01-08T12:23:33.140Z,19.20
2018-01-08T12:26:00.597Z,16.17
2018-01-08T12:28:28.836Z,14.33
2018-01-08T12:30:56.401Z,15.13
2018-01-08T12:33:24.812Z,17.00
2018-01-08T12:35:53.042Z,22.40
2018-01-08T12:38:20.518Z,18.27
2018-01-08T12:40:48.064Z,15.50
2018-01-08T12:43:15.534Z,14.90
2018-01-08T12:45:43.184Z,15.60
2018-01-08T12:48:10.726Z,13.93
2018-01-08T12:50:38.441Z,15.23
2018-01-08T12:53:06.677Z,17.10
2018-01-08T12:55:34.152Z,15.03
2018-01-08T12:58:01.618Z,16.07
2018-01-08T13:00:29.090Z,14.87
2018-01-08T13:02:57.325Z,13.23
2018-01-08T13:05:24.996Z,15.87
2018-01-08T13:07:52.706Z,14.90
2018-01-08T13:10:20.177Z,12.97
2018-01-08T13:12:47.658Z,13.20
2018-01-08T13:15:15.904Z,15.10
2018-01-08T13:17:43.436Z,17.63
2018-01-08T13:20:11.666Z,18.27
2018-01-08T13:22:39.144Z,20.47
2018-01-08T13:25:06.614Z,14.17
2018-01-08T13:27:34.274Z,16.97
2018-01-08T13:30:02.550Z,18.83
2018-01-08T13:32:30.836Z,16.03
2018-01-08T13:34:59.095Z,16.03
2018-01-08T13:37:26.560Z,16.77
2018-01-08T13:39:54.814Z,13.90
2018-01-08T13:42:22.282Z,15.03
2018-01-08T13:44:49.772Z,14.87
2018-01-08T13:47:17.252Z,15.30
2018-01-08T13:49:44.729Z,16.53
2018-01-08T13:52:13.001Z,16.40
2018-01-08T13:54:40.492Z,19.43
2018-01-08T13:57:07.969Z,14.33
2018-01-08T13:59:36.197Z,16.70
2018-01-08T14:02:03.685Z,26.20
2018-01-08T14:04:31.200Z,14.50
2018-01-08T14:06:58.721Z,14.93
2018-01-08T14:09:26.205Z,17.00
2018-01-08T14:11:53.681Z,20.73
2018-01-08T14:14:21.170Z,18.20
2018-01-08T14:16:48.672Z,18.03
2018-01-08T14:19:16.129Z,17.33
2018-01-08T14:21:43.697Z,25.83
2018-01-08T14:24:11.176Z,16.27
2018-01-08T14:26:38.656Z,13.40
2018-01-08T14:29:06.126Z,20.33
2018-01-08T14:31:34.540Z,13.23
2018-01-08T14:34:02.026Z,14.53
2018-01-08T14:36:29.494Z,16.97
2018-01-08T14:38:56.961Z,13.43
2018-01-08T14:41:24.424Z,15.87
2018-01-08T14:43:51.902Z,12.47
2018-01-08T14:46:20.273Z,14.70
2018-01-08T14:48:48.552Z,15.30
2018-01-08T14:51:16.777Z,18.27
2018-01-08T14:53:44.261Z,18.50
2018-01-08T14:56:13.240Z,15.30
2018-01-08T14:58:40.709Z,16.10
2018-01-08T15:01:10.159Z,16.30
2018-01-08T15:03:38.413Z,15.60
2018-01-08T15:06:06.650Z,15.93
2018-01-08T15:08:34.129Z,19.50
2018-01-08T15:11:02.384Z,15.80
2018-01-08T15:13:29.935Z,22.47
2018-01-08T15:15:57.418Z,15.07
2018-01-08T15:18:24.896Z,15.70
2018-01-08T15:20:52.425Z,13.67
2018-01-08T15:23:21.002Z,13.70
2018-01-08T15:25:48.505Z,13.80
2018-01-08T15:28:15.961Z,15.53
2018-01-08T15:30:44.358Z,17.20
2018-01-08T15:33:11.969Z,15.93
2018-01-08T15:35:40.209Z,14.93
2018-01-08T15:38:07.700Z,18.73
2018-01-08T15:40:35.161Z,17.00
2018-01-08T15:43:03.410Z,19.97
2018-01-08T15:45:30.874Z,16.63
2018-01-08T15:47:58.350Z,14.47
2018-01-08T15:50:27.124Z,21.30
2018-01-08T15:52:54.844Z,29.23
2018-01-08T15:55:22.298Z,46.77
2018-01-08T15:57:49.757Z,23.77
2018-01-08T16:00:17.224Z,21.40
2018-01-08T16:02:44.722Z,16.97
2018-01-08T16:05:12.179Z,16.60
2018-01-08T16:07:39.633Z,13.83
2018-01-08T16:10:07.149Z,17.63
2018-01-08T16:12:34.684Z,15.87
2018-01-08T16:15:02.164Z,17.33
2018-01-08T16:17:29.640Z,15.80
2018-01-08T16:19:57.120Z,16.87
2018-01-08T16:22:24.599Z,14.70
2018-01-08T16:24:52.833Z,18.83
2018-01-08T16:27:20.315Z,15.40
2018-01-08T16:29:48.653Z,16.77
2018-01-08T16:32:16.120Z,17.37
2018-01-08T16:34:43.715Z,15.00
2018-01-08T16:37:12.777Z,17.10
2018-01-08T16:39:40.265Z,20.13
2018-01-08T16:42:08.513Z,21.80
2018-01-08T16:44:37.093Z,19.10
2018-01-08T16:47:04.619Z,19.50
2018-01-08T16:49:33.073Z,18.63
2018-01-08T16:52:01.425Z,18.30
2018-01-08T16:54:28.903Z,16.77
2018-01-08T16:56:57.137Z,16.40
2018-01-08T16:59:24.606Z,17.57
2018-01-08T17:01:52.186Z,16.97
2018-01-08T17:04:21.234Z,15.50
2018-01-08T17:06:48.711Z,20.43
2018-01-08T17:09:16.205Z,15.30
2018-01-08T17:11:45.443Z,18.47
2018-01-08T17:14:13.062Z,17.30
2018-01-08T17:16:41.317Z,15.27
2018-01-08T17:19:08.802Z,16.13
2018-01-08T17:21:37.213Z,20.33
2018-01-08T17:24:04.829Z,16.50
2018-01-08T17:26:32.433Z,15.83
2018-01-08T17:29:00.065Z,16.50
2018-01-08T17:31:28.324Z,20.97
2018-01-08T17:33:55.789Z,21.70
2018-01-08T17:36:24.028Z,18.70
2018-01-08T17:38:51.501Z,21.13
2018-01-08T17:41:18.992Z,16.10
2018-01-08T17:43:47.496Z,18.47
2018-01-08T17:46:15.151Z,18.43
2018-01-08T17:48:42.620Z,21.87
2018-01-08T17:51:10.104Z,20.03
2018-01-08T17:53:37.628Z,16.70
2018-01-08T17:56:05.098Z,18.90
2018-01-08T17:58:32.653Z,23.30
2018-01-08T18:01:01.146Z,22.57
2018-01-08T18:03:28.733Z,21.87
2018-01-08T18:05:57.886Z,22.27
2018-01-08T18:08:25.394Z,20.17
2018-01-08T18:10:52.862Z,21.93
2018-01-08T18:13:21.240Z,24.13
2018-01-08T18:15:50.398Z,17.93
2018-01-08T18:18:17.884Z,18.40
2018-01-08T18:20:46.149Z,24.60
2018-01-08T18:23:13.616Z,19.53
2018-01-08T18:25:41.893Z,26.20
2018-01-08T18:28:10.168Z,20.07
2018-01-08T18:30:38.677Z,22.70
2018-01-08T18:33:06.192Z,20.63
2018-01-08T18:35:34.676Z,22.90
2018-01-08T18:38:02.144Z,20.77
2018-01-08T18:40:30.394Z,19.40
2018-01-08T18:42:57.880Z,21.53
2018-01-08T18:45:26.138Z,20.73
2018-01-08T18:47:53.614Z,22.33
2018-01-08T18:50:21.872Z,19.13
2018-01-08T18:52:50.015Z,19.83
2018-01-08T18:55:17.481Z,18.77
2018-01-08T18:57:44.977Z,22.23
2018-01-08T19:00:13.219Z,21.13
2018-01-08T19:02:40.704Z,21.67
2018-01-08T19:05:08.933Z,22.87
2018-01-08T19:07:36.408Z,19.23
2018-01-08T19:10:03.884Z,23.87
2018-01-08T19:12:31.357Z,20.00
2018-01-08T19:14:59.597Z,24.60
2018-01-08T19:17:27.143Z,20.67
2018-01-08T19:19:54.638Z,22.20
2018-01-08T19:22:22.934Z,22.97
2018-01-08T19:24:50.411Z,23.23
2018-01-08T19:27:17.901Z,23.00
2018-01-08T19:29:45.376Z,21.57
2018-01-08T19:32:12.864Z,23.23
2018-01-08T19:34:40.472Z,26.07
2018-01-08T19:37:07.984Z,21.20
2018-01-08T19:39:35.605Z,20.37
2018-01-08T19:42:03.138Z,20.27
2018-01-08T19:44:30.619Z,21.20
2018-01-08T19:46:58.114Z,25.60
2018-01-08T19:49:26.366Z,24.63
2018-01-08T19:51:54.614Z,26.70
2018-01-08T19:54:22.301Z,25.40
2018-01-08T19:56:50.526Z,23.10
2018-01-08T19:59:18.858Z,21.50
2018-01-08T20:01:46.659Z,22.67
2018-01-08T20:04:14.122Z,18.53
2018-01-08T20:06:41.592Z,22.60
2018-01-08T20:09:09.957Z,20.57
2018-01-08T20:11:38.293Z,22.60
2018-01-08T20:14:06.521Z,24.13
2018-01-08T20:16:34.004Z,23.90
2018-01-08T20:19:01.485Z,21.23
2018-01-08T20:21:29.728Z,28.93
2018-01-08T20:23:57.214Z,23.87
2018-01-08T20:26:25.437Z,20.33
2018-01-08T20:28:52.961Z,28.40
2018-01-08T20:31:21.193Z,21.13
2018-01-08T20:33:48.689Z,22.70
2018-01-08T20:36:17.230Z,23.60
2018-01-08T20:38:44.940Z,21.43
2018-01-08T20:41:13.177Z,22.37
2018-01-08T20:43:40.703Z,21.93
2018-01-08T20:46:08.220Z,22.50
2018-01-08T20:48:36.552Z,27.73
2018-01-08T20:51:04.150Z,23.73
2018-01-08T20:53:31.651Z,25.40
2018-01-08T20:55:59.217Z,25.60
2018-01-08T20:58:26.835Z,22.30
2018-01-08T21:00:55.226Z,25.47
2018-01-08T21:03:25.329Z,27.10
2018-01-08T21:05:53.578Z,29.40
2018-01-08T21:08:21.886Z,22.77
2018-01-08T21:10:51.093Z,22.47
2018-01-08T21:13:18.556Z,26.20
2018-01-08T21:15:47.225Z,26.10
2018-01-08T21:18:14.684Z,29.53
2018-01-08T21:20:43.509Z,26.13
2018-01-08T21:23:10.986Z,27.67
2018-01-08T21:25:38.448Z,25.80
2018-01-08T21:28:05.933Z,22.80
2018-01-08T21:30:34.174Z,26.27
2018-01-08T21:33:01.660Z,26.33
2018-01-08T21:35:29.135Z,28.37
2018-01-08T21:37:57.445Z,27.20
2018-01-08T21:40:24.928Z,28.13
2018-01-08T21:42:52.412Z,25.33
2018-01-08T21:45:19.894Z,25.37
2018-01-08T21:47:47.372Z,24.40
2018-01-08T21:50:15.752Z,22.00
2018-01-08T21:52:43.237Z,23.63
2018-01-08T21:55:10.715Z,21.77
2018-01-08T21:57:38.303Z,23.17
2018-01-08T22:00:07.527Z,26.10
2018-01-08T22:02:34.993Z,23.63
2018-01-08T22:05:03.291Z,24.80
2018-01-08T22:07:30.757Z,27.40
2018-01-08T22:09:58.243Z,27.40
2018-01-08T22:12:26.604Z,22.80
2018-01-08T22:14:54.226Z,20.30
2018-01-08T22:17:21.835Z,24.00
2018-01-08T22:19:50.080Z,27.10
2018-01-08T22:22:17.556Z,33.10
2018-01-08T22:24:45.782Z,22.53
2018-01-08T22:27:13.275Z,24.27
2018-01-08T22:29:40.743Z,26.43
2018-01-08T22:32:08.233Z,21.07
2018-01-08T22:34:35.785Z,24.87
2018-01-08T22:37:03.246Z,19.47
2018-01-08T22:39:30.742Z,21.20
2018-01-08T22:41:58.216Z,21.27
2018-01-08T22:44:26.600Z,25.63
2018-01-08T22:46:54.072Z,19.33
2018-01-08T22:49:23.332Z,19.73
2018-01-08T22:51:50.808Z,19.77
2018-01-08T22:54:19.278Z,25.70
2018-01-08T22:56:46.763Z,23.03
2018-01-08T22:59:14.386Z,19.10
2018-01-08T23:01:41.873Z,20.70
2018-01-08T23:04:09.568Z,19.13
2018-01-08T23:06:37.944Z,21.70
2018-01-08T23:09:06.330Z,19.50
2018-01-08T23:11:33.942Z,19.57
2018-01-08T23:14:02.917Z,20.60
2018-01-08T23:16:30.394Z,20.03
2018-01-08T23:18:58.689Z,17.30
2018-01-08T23:21:26.930Z,16.00
2018-01-08T23:23:54.489Z,18.87
2018-01-08T23:26:22.933Z,14.40
2018-01-08T23:28:50.405Z,16.60
2018-01-08T23:31:17.864Z,13.87
2018-01-08T23:33:45.357Z,17.07
2018-01-08T23:36:12.820Z,19.50
2018-01-08T23:38:40.292Z,16.73
2018-01-08T23:41:09.245Z,17.67
2018-01-08T23:43:36.804Z,19.70
2018-01-08T23:46:04.341Z,17.87
2018-01-08T23:48:31.824Z,16.10
2018-01-08T23:50:59.281Z,15.10
2018-01-08T23:53:26.760Z,15.37
2018-01-08T23:55:54.245Z,17.37
2018-01-08T23:58:21.702Z,16.53
